sensor_id;sensor_type;location;lat;lon;timestamp;P1;durP1;ratioP1;P2;durP2;ratioP2
1410;SDS011;700;51.906;8.404;2022-12-18T00:01:36;34.30;;;18.17;;
1410;SDS011;700;51.906;8.404;2022-12-18T00:06:40;27.33;;;16.77;;
1410;SDS011;700;51.906;8.404;2022-12-18T00:11:40;27.43;;;17.47;;
1410;SDS011;700;51.906;8.404;2022-12-18T00:16:44;26.47;;;18.03;;
1410;SDS011;700;51.906;8.404;2022-12-18T00:21:47;36.47;;;19.30;;
1410;SDS011;700;51.906;8.404;2022-12-18T00:26:49;37.40;;;19.43;;
1410;SDS011;700;51.906;8.404;2022-12-18T00:31:50;40.10;;;21.27;;
1410;SDS011;700;51.906;8.404;2022-12-18T00:36:51;32.10;;;17.30;;
1410;SDS011;700;51.906;8.404;2022-12-18T00:41:51;29.07;;;16.23;;
1410;SDS011;700;51.906;8.404;2022-12-18T00:47:13;31.80;;;16.73;;
1410;SDS011;700;51.906;8.404;2022-12-18T00:52:13;33.20;;;17.27;;
1410;SDS011;700;51.906;8.404;2022-12-18T00:57:14;25.00;;;14.87;;
1410;SDS011;700;51.906;8.404;2022-12-18T01:02:17;27.10;;;14.03;;
1410;SDS011;700;51.906;8.404;2022-12-18T01:07:22;23.03;;;12.87;;
1410;SDS011;700;51.906;8.404;2022-12-18T01:12:25;21.33;;;11.70;;
1410;SDS011;700;51.906;8.404;2022-12-18T01:17:28;21.87;;;11.80;;
1410;SDS011;700;51.906;8.404;2022-12-18T01:22:29;19.13;;;11.10;;
1410;SDS011;700;51.906;8.404;2022-12-18T01:27:29;20.50;;;11.53;;
1410;SDS011;700;51.906;8.404;2022-12-18T01:32:31;18.60;;;11.20;;
1410;SDS011;700;51.906;8.404;2022-12-18T01:37:32;20.37;;;11.40;;
1410;SDS011;700;51.906;8.404;2022-12-18T01:42:35;13.70;;;9.00;;
1410;SDS011;700;51.906;8.404;2022-12-18T01:52:36;15.37;;;9.00;;
1410;SDS011;700;51.906;8.404;2022-12-18T01:57:38;14.90;;;8.47;;
1410;SDS011;700;51.906;8.404;2022-12-18T02:02:40;16.07;;;9.17;;
1410;SDS011;700;51.906;8.404;2022-12-18T02:07:59;16.17;;;8.70;;
1410;SDS011;700;51.906;8.404;2022-12-18T02:13:12;10.90;;;8.40;;
1410;SDS011;700;51.906;8.404;2022-12-18T02:18:21;15.03;;;8.80;;
1410;SDS011;700;51.906;8.404;2022-12-18T02:23:43;15.63;;;8.17;;
1410;SDS011;700;51.906;8.404;2022-12-18T02:34:03;18.67;;;9.70;;
1410;SDS011;700;51.906;8.404;2022-12-18T02:39:09;18.33;;;8.80;;
1410;SDS011;700;51.906;8.404;2022-12-18T02:44:14;15.40;;;8.03;;
1410;SDS011;700;51.906;8.404;2022-12-18T02:59:53;20.07;;;8.50;;
1410;SDS011;700;51.906;8.404;2022-12-18T03:05:21;20.00;;;8.70;;
1410;SDS011;700;51.906;8.404;2022-12-18T03:10:24;16.13;;;7.67;;
1410;SDS011;700;51.906;8.404;2022-12-18T03:15:29;15.53;;;8.57;;
1410;SDS011;700;51.906;8.404;2022-12-18T03:20:34;14.00;;;7.10;;
1410;SDS011;700;51.906;8.404;2022-12-18T03:25:39;11.93;;;6.80;;
1410;SDS011;700;51.906;8.404;2022-12-18T03:30:44;12.83;;;6.90;;
1410;SDS011;700;51.906;8.404;2022-12-18T03:35:50;10.93;;;6.03;;
1410;SDS011;700;51.906;8.404;2022-12-18T03:41:06;9.27;;;5.03;;
1410;SDS011;700;51.906;8.404;2022-12-18T03:51:53;13.37;;;6.10;;
1410;SDS011;700;51.906;8.404;2022-12-18T03:56:58;9.20;;;5.90;;
1410;SDS011;700;51.906;8.404;2022-12-18T04:02:04;12.23;;;6.47;;
1410;SDS011;700;51.906;8.404;2022-12-18T04:07:07;12.90;;;6.60;;
1410;SDS011;700;51.906;8.404;2022-12-18T04:12:11;9.40;;;5.37;;
1410;SDS011;700;51.906;8.404;2022-12-18T04:17:14;13.17;;;6.37;;
1410;SDS011;700;51.906;8.404;2022-12-18T04:22:17;11.03;;;5.50;;
1410;SDS011;700;51.906;8.404;2022-12-18T04:27:22;7.80;;;4.60;;
1410;SDS011;700;51.906;8.404;2022-12-18T04:32:23;8.73;;;5.60;;
1410;SDS011;700;51.906;8.404;2022-12-18T04:37:23;11.40;;;5.13;;
1410;SDS011;700;51.906;8.404;2022-12-18T04:42:24;9.07;;;5.57;;
1410;SDS011;700;51.906;8.404;2022-12-18T04:47:25;8.63;;;5.00;;
1410;SDS011;700;51.906;8.404;2022-12-18T04:52:25;10.90;;;5.37;;
1410;SDS011;700;51.906;8.404;2022-12-18T04:57:38;7.70;;;4.77;;
1410;SDS011;700;51.906;8.404;2022-12-18T05:02:39;12.17;;;5.70;;
1410;SDS011;700;51.906;8.404;2022-12-18T05:07:41;9.07;;;4.70;;
1410;SDS011;700;51.906;8.404;2022-12-18T05:12:44;10.70;;;5.17;;
1410;SDS011;700;51.906;8.404;2022-12-18T05:18:00;7.53;;;4.40;;
1410;SDS011;700;51.906;8.404;2022-12-18T05:23:03;8.63;;;4.73;;
1410;SDS011;700;51.906;8.404;2022-12-18T05:28:04;10.53;;;5.53;;
1410;SDS011;700;51.906;8.404;2022-12-18T05:33:09;7.03;;;4.90;;
1410;SDS011;700;51.906;8.404;2022-12-18T05:38:10;12.83;;;5.13;;
1410;SDS011;700;51.906;8.404;2022-12-18T05:43:10;8.93;;;5.87;;
1410;SDS011;700;51.906;8.404;2022-12-18T05:48:13;11.70;;;5.10;;
1410;SDS011;700;51.906;8.404;2022-12-18T05:53:15;11.17;;;6.87;;
1410;SDS011;700;51.906;8.404;2022-12-18T05:58:17;11.50;;;6.20;;
1410;SDS011;700;51.906;8.404;2022-12-18T06:03:20;11.10;;;6.63;;
1410;SDS011;700;51.906;8.404;2022-12-18T06:08:21;13.73;;;6.73;;
1410;SDS011;700;51.906;8.404;2022-12-18T06:13:22;12.90;;;7.70;;
1410;SDS011;700;51.906;8.404;2022-12-18T06:18:22;12.13;;;7.10;;
1410;SDS011;700;51.906;8.404;2022-12-18T06:23:23;13.80;;;7.60;;
1410;SDS011;700;51.906;8.404;2022-12-18T06:28:24;11.73;;;6.27;;
1410;SDS011;700;51.906;8.404;2022-12-18T06:33:26;8.60;;;6.27;;
1410;SDS011;700;51.906;8.404;2022-12-18T06:38:28;14.27;;;6.63;;
1410;SDS011;700;51.906;8.404;2022-12-18T06:43:28;16.70;;;8.60;;
1410;SDS011;700;51.906;8.404;2022-12-18T06:48:29;10.57;;;6.97;;
1410;SDS011;700;51.906;8.404;2022-12-18T06:53:32;15.47;;;7.50;;
1410;SDS011;700;51.906;8.404;2022-12-18T06:58:38;12.10;;;7.50;;
1410;SDS011;700;51.906;8.404;2022-12-18T07:03:40;9.90;;;6.60;;
1410;SDS011;700;51.906;8.404;2022-12-18T07:08:41;13.53;;;7.53;;
1410;SDS011;700;51.906;8.404;2022-12-18T07:13:42;13.40;;;7.50;;
1410;SDS011;700;51.906;8.404;2022-12-18T07:18:43;13.97;;;7.30;;
1410;SDS011;700;51.906;8.404;2022-12-18T07:23:44;10.77;;;7.00;;
1410;SDS011;700;51.906;8.404;2022-12-18T07:28:48;9.47;;;6.50;;
1410;SDS011;700;51.906;8.404;2022-12-18T07:33:49;13.63;;;7.50;;
1410;SDS011;700;51.906;8.404;2022-12-18T07:38:50;14.23;;;8.50;;
1410;SDS011;700;51.906;8.404;2022-12-18T07:43:52;13.87;;;7.67;;
1410;SDS011;700;51.906;8.404;2022-12-18T07:48:53;13.80;;;7.40;;
1410;SDS011;700;51.906;8.404;2022-12-18T07:53:54;12.77;;;7.37;;
1410;SDS011;700;51.906;8.404;2022-12-18T07:58:59;13.33;;;8.13;;
1410;SDS011;700;51.906;8.404;2022-12-18T08:04:02;13.20;;;7.77;;
1410;SDS011;700;51.906;8.404;2022-12-18T08:09:03;11.20;;;6.70;;
1410;SDS011;700;51.906;8.404;2022-12-18T08:14:08;11.30;;;7.10;;
1410;SDS011;700;51.906;8.404;2022-12-18T08:19:11;10.67;;;7.07;;
1410;SDS011;700;51.906;8.404;2022-12-18T08:24:11;11.67;;;6.33;;
1410;SDS011;700;51.906;8.404;2022-12-18T08:29:14;11.17;;;6.40;;
1410;SDS011;700;51.906;8.404;2022-12-18T08:34:20;10.73;;;6.40;;
1410;SDS011;700;51.906;8.404;2022-12-18T08:39:23;9.73;;;7.00;;
1410;SDS011;700;51.906;8.404;2022-12-18T08:44:23;8.70;;;5.70;;
1410;SDS011;700;51.906;8.404;2022-12-18T08:49:49;11.63;;;7.27;;
1410;SDS011;700;51.906;8.404;2022-12-18T08:54:52;10.73;;;6.80;;
1410;SDS011;700;51.906;8.404;2022-12-18T08:59:54;11.53;;;7.10;;
1410;SDS011;700;51.906;8.404;2022-12-18T09:04:55;12.90;;;8.13;;
1410;SDS011;700;51.906;8.404;2022-12-18T09:09:56;9.67;;;7.20;;
1410;SDS011;700;51.906;8.404;2022-12-18T09:14:59;9.73;;;6.53;;
1410;SDS011;700;51.906;8.404;2022-12-18T09:19:59;8.97;;;6.63;;
1410;SDS011;700;51.906;8.404;2022-12-18T09:25:07;13.80;;;7.53;;
1410;SDS011;700;51.906;8.404;2022-12-18T09:30:10;12.07;;;7.73;;
1410;SDS011;700;51.906;8.404;2022-12-18T09:35:11;9.30;;;7.00;;
1410;SDS011;700;51.906;8.404;2022-12-18T09:40:19;13.23;;;7.80;;
1410;SDS011;700;51.906;8.404;2022-12-18T09:45:21;10.17;;;7.20;;
1410;SDS011;700;51.906;8.404;2022-12-18T10:00:34;9.30;;;6.53;;
1410;SDS011;700;51.906;8.404;2022-12-18T10:10:52;9.93;;;6.50;;
1410;SDS011;700;51.906;8.404;2022-12-18T10:16:12;8.83;;;6.50;;
1410;SDS011;700;51.906;8.404;2022-12-18T10:21:23;11.37;;;7.40;;
1410;SDS011;700;51.906;8.404;2022-12-18T10:26:40;9.80;;;7.53;;
1410;SDS011;700;51.906;8.404;2022-12-18T10:31:45;8.67;;;6.33;;
1410;SDS011;700;51.906;8.404;2022-12-18T10:36:47;8.27;;;6.50;;
1410;SDS011;700;51.906;8.404;2022-12-18T10:41:51;7.60;;;6.00;;
1410;SDS011;700;51.906;8.404;2022-12-18T10:47:11;8.10;;;6.47;;
1410;SDS011;700;51.906;8.404;2022-12-18T10:52:17;9.90;;;7.90;;
1410;SDS011;700;51.906;8.404;2022-12-18T10:57:41;7.20;;;5.37;;
1410;SDS011;700;51.906;8.404;2022-12-18T11:02:41;7.93;;;6.40;;
1410;SDS011;700;51.906;8.404;2022-12-18T11:07:46;7.90;;;5.70;;
1410;SDS011;700;51.906;8.404;2022-12-18T11:12:50;7.80;;;6.00;;
1410;SDS011;700;51.906;8.404;2022-12-18T11:17:53;8.30;;;5.80;;
1410;SDS011;700;51.906;8.404;2022-12-18T11:22:56;8.53;;;6.40;;
1410;SDS011;700;51.906;8.404;2022-12-18T11:28:23;8.90;;;5.93;;
1410;SDS011;700;51.906;8.404;2022-12-18T11:33:26;9.33;;;6.60;;
1410;SDS011;700;51.906;8.404;2022-12-18T11:38:39;8.93;;;6.20;;
1410;SDS011;700;51.906;8.404;2022-12-18T11:43:53;10.90;;;6.60;;
1410;SDS011;700;51.906;8.404;2022-12-18T11:49:01;10.93;;;6.57;;
1410;SDS011;700;51.906;8.404;2022-12-18T11:54:12;13.23;;;7.20;;
1410;SDS011;700;51.906;8.404;2022-12-18T12:20:47;6.57;;;4.73;;
1410;SDS011;700;51.906;8.404;2022-12-18T12:26:02;7.83;;;5.73;;
1410;SDS011;700;51.906;8.404;2022-12-18T12:41:52;7.80;;;5.57;;
1410;SDS011;700;51.906;8.404;2022-12-18T12:52:32;7.17;;;5.20;;
1410;SDS011;700;51.906;8.404;2022-12-18T12:57:37;7.10;;;4.10;;
1410;SDS011;700;51.906;8.404;2022-12-18T13:02:58;8.03;;;5.00;;
1410;SDS011;700;51.906;8.404;2022-12-18T13:08:12;10.13;;;6.20;;
1410;SDS011;700;51.906;8.404;2022-12-18T13:13:24;8.23;;;5.80;;
1410;SDS011;700;51.906;8.404;2022-12-18T13:18:27;10.30;;;5.20;;
1410;SDS011;700;51.906;8.404;2022-12-18T13:23:34;9.83;;;5.50;;
1410;SDS011;700;51.906;8.404;2022-12-18T13:33:46;9.23;;;5.20;;
1410;SDS011;700;51.906;8.404;2022-12-18T13:38:47;7.90;;;4.90;;
1410;SDS011;700;51.906;8.404;2022-12-18T13:49:38;7.93;;;5.40;;
1410;SDS011;700;51.906;8.404;2022-12-18T13:54:42;9.23;;;5.60;;
1410;SDS011;700;51.906;8.404;2022-12-18T13:59:47;9.47;;;4.50;;
1410;SDS011;700;51.906;8.404;2022-12-18T14:04:52;9.10;;;4.77;;
1410;SDS011;700;51.906;8.404;2022-12-18T14:09:56;6.03;;;4.40;;
1410;SDS011;700;51.906;8.404;2022-12-18T14:14:59;5.37;;;3.60;;
1410;SDS011;700;51.906;8.404;2022-12-18T14:20:00;8.47;;;5.23;;
1410;SDS011;700;51.906;8.404;2022-12-18T14:30:23;7.07;;;4.33;;
1410;SDS011;700;51.906;8.404;2022-12-18T14:35:25;6.73;;;4.30;;
1410;SDS011;700;51.906;8.404;2022-12-18T14:40:26;5.30;;;4.40;;
1410;SDS011;700;51.906;8.404;2022-12-18T14:50:41;7.30;;;4.97;;
1410;SDS011;700;51.906;8.404;2022-12-18T14:55:46;9.10;;;5.90;;
1410;SDS011;700;51.906;8.404;2022-12-18T15:00:48;7.47;;;4.63;;
1410;SDS011;700;51.906;8.404;2022-12-18T15:05:48;7.13;;;5.77;;
1410;SDS011;700;51.906;8.404;2022-12-18T15:10:49;8.07;;;5.37;;
1410;SDS011;700;51.906;8.404;2022-12-18T15:15:49;6.73;;;5.17;;
1410;SDS011;700;51.906;8.404;2022-12-18T15:26:03;10.67;;;5.83;;
1410;SDS011;700;51.906;8.404;2022-12-18T15:36:09;7.80;;;5.60;;
1410;SDS011;700;51.906;8.404;2022-12-18T15:41:15;8.03;;;5.63;;
1410;SDS011;700;51.906;8.404;2022-12-18T15:46:24;11.07;;;6.00;;
1410;SDS011;700;51.906;8.404;2022-12-18T15:51:28;10.97;;;6.57;;
1410;SDS011;700;51.906;8.404;2022-12-18T15:56:32;8.10;;;6.20;;
1410;SDS011;700;51.906;8.404;2022-12-18T16:01:51;14.60;;;6.43;;
1410;SDS011;700;51.906;8.404;2022-12-18T16:06:57;9.73;;;6.87;;
1410;SDS011;700;51.906;8.404;2022-12-18T16:11:58;9.67;;;6.63;;
1410;SDS011;700;51.906;8.404;2022-12-18T16:17:00;12.00;;;7.70;;
1410;SDS011;700;51.906;8.404;2022-12-18T16:22:03;14.40;;;7.50;;
1410;SDS011;700;51.906;8.404;2022-12-18T16:27:04;11.23;;;7.17;;
1410;SDS011;700;51.906;8.404;2022-12-18T16:32:05;11.90;;;8.03;;
1410;SDS011;700;51.906;8.404;2022-12-18T16:37:06;12.50;;;7.20;;
1410;SDS011;700;51.906;8.404;2022-12-18T16:42:10;11.07;;;7.37;;
1410;SDS011;700;51.906;8.404;2022-12-18T16:47:16;12.40;;;7.43;;
1410;SDS011;700;51.906;8.404;2022-12-18T16:52:18;14.90;;;8.37;;
1410;SDS011;700;51.906;8.404;2022-12-18T16:57:20;13.40;;;8.40;;
1410;SDS011;700;51.906;8.404;2022-12-18T17:02:22;12.80;;;9.50;;
1410;SDS011;700;51.906;8.404;2022-12-18T17:07:26;13.50;;;7.90;;
1410;SDS011;700;51.906;8.404;2022-12-18T17:12:31;14.90;;;9.40;;
1410;SDS011;700;51.906;8.404;2022-12-18T17:17:32;14.87;;;9.53;;
1410;SDS011;700;51.906;8.404;2022-12-18T17:22:33;16.07;;;10.57;;
1410;SDS011;700;51.906;8.404;2022-12-18T17:27:38;14.77;;;10.43;;
1410;SDS011;700;51.906;8.404;2022-12-18T17:32:39;15.53;;;9.50;;
1410;SDS011;700;51.906;8.404;2022-12-18T17:37:40;13.93;;;9.63;;
1410;SDS011;700;51.906;8.404;2022-12-18T17:42:40;17.33;;;10.83;;
1410;SDS011;700;51.906;8.404;2022-12-18T17:47:41;17.43;;;10.83;;
1410;SDS011;700;51.906;8.404;2022-12-18T17:52:41;20.43;;;11.77;;
1410;SDS011;700;51.906;8.404;2022-12-18T17:57:42;18.70;;;11.80;;
1410;SDS011;700;51.906;8.404;2022-12-18T18:02:45;19.40;;;11.90;;
1410;SDS011;700;51.906;8.404;2022-12-18T18:07:51;22.67;;;12.67;;
1410;SDS011;700;51.906;8.404;2022-12-18T18:12:52;22.70;;;13.10;;
1410;SDS011;700;51.906;8.404;2022-12-18T18:18:13;19.90;;;12.90;;
1410;SDS011;700;51.906;8.404;2022-12-18T18:23:19;21.40;;;13.47;;
1410;SDS011;700;51.906;8.404;2022-12-18T18:28:22;22.80;;;13.50;;
1410;SDS011;700;51.906;8.404;2022-12-18T18:33:25;24.73;;;14.30;;
1410;SDS011;700;51.906;8.404;2022-12-18T18:38:26;26.53;;;14.67;;
1410;SDS011;700;51.906;8.404;2022-12-18T18:43:30;25.50;;;14.27;;
1410;SDS011;700;51.906;8.404;2022-12-18T18:48:32;23.03;;;14.13;;
1410;SDS011;700;51.906;8.404;2022-12-18T18:53:37;23.60;;;14.50;;
1410;SDS011;700;51.906;8.404;2022-12-18T18:58:41;25.07;;;16.77;;
1410;SDS011;700;51.906;8.404;2022-12-18T19:03:42;26.83;;;14.77;;
1410;SDS011;700;51.906;8.404;2022-12-18T19:08:44;26.90;;;15.20;;
1410;SDS011;700;51.906;8.404;2022-12-18T19:13:45;25.40;;;15.53;;
1410;SDS011;700;51.906;8.404;2022-12-18T19:18:48;31.33;;;17.20;;
1410;SDS011;700;51.906;8.404;2022-12-18T19:23:51;27.47;;;14.23;;
1410;SDS011;700;51.906;8.404;2022-12-18T19:28:53;25.80;;;14.50;;
1410;SDS011;700;51.906;8.404;2022-12-18T19:33:59;30.17;;;16.87;;
1410;SDS011;700;51.906;8.404;2022-12-18T19:39:00;32.33;;;17.57;;
1410;SDS011;700;51.906;8.404;2022-12-18T19:44:08;27.17;;;15.80;;
1410;SDS011;700;51.906;8.404;2022-12-18T19:49:11;32.77;;;15.03;;
1410;SDS011;700;51.906;8.404;2022-12-18T19:54:13;27.90;;;16.40;;
1410;SDS011;700;51.906;8.404;2022-12-18T19:59:14;30.50;;;16.40;;
1410;SDS011;700;51.906;8.404;2022-12-18T20:04:19;27.97;;;15.40;;
1410;SDS011;700;51.906;8.404;2022-12-18T20:09:20;28.20;;;15.43;;
1410;SDS011;700;51.906;8.404;2022-12-18T20:14:25;27.83;;;17.13;;
1410;SDS011;700;51.906;8.404;2022-12-18T20:19:28;31.83;;;16.40;;
1410;SDS011;700;51.906;8.404;2022-12-18T20:24:31;30.73;;;17.30;;
1410;SDS011;700;51.906;8.404;2022-12-18T20:29:32;32.43;;;16.67;;
1410;SDS011;700;51.906;8.404;2022-12-18T20:34:35;27.90;;;16.03;;
1410;SDS011;700;51.906;8.404;2022-12-18T20:39:38;31.27;;;17.30;;
1410;SDS011;700;51.906;8.404;2022-12-18T20:44:38;30.57;;;16.37;;
1410;SDS011;700;51.906;8.404;2022-12-18T20:49:39;26.73;;;15.07;;
1410;SDS011;700;51.906;8.404;2022-12-18T20:54:40;35.00;;;17.20;;
1410;SDS011;700;51.906;8.404;2022-12-18T20:59:43;26.50;;;16.50;;
1410;SDS011;700;51.906;8.404;2022-12-18T21:04:47;29.87;;;16.37;;
1410;SDS011;700;51.906;8.404;2022-12-18T21:09:47;29.90;;;17.90;;
1410;SDS011;700;51.906;8.404;2022-12-18T21:14:48;29.40;;;17.30;;
1410;SDS011;700;51.906;8.404;2022-12-18T21:19:51;30.30;;;16.20;;
1410;SDS011;700;51.906;8.404;2022-12-18T21:24:56;27.27;;;16.20;;
1410;SDS011;700;51.906;8.404;2022-12-18T21:29:57;29.47;;;17.30;;
1410;SDS011;700;51.906;8.404;2022-12-18T21:34:58;31.57;;;18.20;;
1410;SDS011;700;51.906;8.404;2022-12-18T21:40:01;27.20;;;16.17;;
1410;SDS011;700;51.906;8.404;2022-12-18T21:45:05;26.97;;;16.00;;
1410;SDS011;700;51.906;8.404;2022-12-18T21:50:06;30.73;;;16.93;;
1410;SDS011;700;51.906;8.404;2022-12-18T21:55:10;28.43;;;16.20;;
1410;SDS011;700;51.906;8.404;2022-12-18T22:00:13;31.87;;;17.20;;
1410;SDS011;700;51.906;8.404;2022-12-18T22:05:14;28.83;;;17.73;;
1410;SDS011;700;51.906;8.404;2022-12-18T22:10:14;30.93;;;18.47;;
1410;SDS011;700;51.906;8.404;2022-12-18T22:15:15;30.93;;;17.93;;
1410;SDS011;700;51.906;8.404;2022-12-18T22:20:16;29.83;;;18.43;;
1410;SDS011;700;51.906;8.404;2022-12-18T22:25:17;31.17;;;18.37;;
1410;SDS011;700;51.906;8.404;2022-12-18T22:30:18;28.03;;;17.17;;
1410;SDS011;700;51.906;8.404;2022-12-18T22:35:19;32.00;;;19.00;;
1410;SDS011;700;51.906;8.404;2022-12-18T22:40:27;31.57;;;17.23;;
1410;SDS011;700;51.906;8.404;2022-12-18T22:45:28;34.50;;;17.37;;
1410;SDS011;700;51.906;8.404;2022-12-18T22:50:28;31.30;;;18.43;;
1410;SDS011;700;51.906;8.404;2022-12-18T22:55:32;28.00;;;16.20;;
1410;SDS011;700;51.906;8.404;2022-12-18T23:00:33;29.97;;;17.50;;
1410;SDS011;700;51.906;8.404;2022-12-18T23:05:34;30.37;;;18.80;;
1410;SDS011;700;51.906;8.404;2022-12-18T23:10:37;30.03;;;17.07;;
1410;SDS011;700;51.906;8.404;2022-12-18T23:15:40;29.60;;;17.97;;
1410;SDS011;700;51.906;8.404;2022-12-18T23:20:41;33.53;;;18.47;;
1410;SDS011;700;51.906;8.404;2022-12-18T23:25:42;32.80;;;20.10;;
1410;SDS011;700;51.906;8.404;2022-12-18T23:30:43;31.93;;;18.93;;
1410;SDS011;700;51.906;8.404;2022-12-18T23:35:44;29.20;;;18.40;;
1410;SDS011;700;51.906;8.404;2022-12-18T23:40:44;36.03;;;19.77;;
1410;SDS011;700;51.906;8.404;2022-12-18T23:45:45;35.23;;;19.47;;
1410;SDS011;700;51.906;8.404;2022-12-18T23:50:48;34.93;;;20.47;;
1410;SDS011;700;51.906;8.404;2022-12-18T23:55:48;32.90;;;20.17;;
